createdAt,value
2023-05-12T00:01:36.922Z,100.00
2023-05-12T00:07:01.951Z,100.00
2023-05-12T00:12:26.903Z,100.00
2023-05-12T00:17:54.951Z,100.00
2023-05-12T00:23:18.927Z,100.00
2023-05-12T00:28:43.957Z,100.00
2023-05-12T00:34:10.932Z,100.00
2023-05-12T00:39:35.935Z,100.00
2023-05-12T00:45:02.362Z,100.00
2023-05-12T00:50:30.949Z,100.00
2023-05-12T00:55:54.949Z,100.00
2023-05-12T01:01:19.992Z,100.00
2023-05-12T01:06:53.974Z,100.00
2023-05-12T01:12:18.971Z,100.00
2023-05-12T01:17:47.054Z,100.00
2023-05-12T01:23:15.973Z,100.00
2023-05-12T01:28:42.954Z,100.00
2023-05-12T01:34:07.988Z,100.00
2023-05-12T01:39:31.996Z,100.00
2023-05-12T01:44:59.994Z,100.00
2023-05-12T01:50:25.966Z,100.00
2023-05-12T01:55:52.001Z,100.00
2023-05-12T02:01:21.046Z,100.00
2023-05-12T02:06:46.964Z,100.00
2023-05-12T02:12:12.013Z,100.00
2023-05-12T02:17:40.023Z,100.00
2023-05-12T02:23:05.980Z,100.00
2023-05-12T02:28:30.999Z,100.00
2023-05-12T02:33:57.979Z,100.00
2023-05-12T02:39:22.997Z,100.00
2023-05-12T02:44:48.020Z,100.00
2023-05-12T02:50:17.098Z,100.00
2023-05-12T02:55:41.002Z,100.00
2023-05-12T03:01:10.956Z,100.00
2023-05-12T03:06:39.042Z,100.00
2023-05-12T03:12:04.009Z,100.00
2023-05-12T03:17:28.081Z,100.00
2023-05-12T03:22:56.055Z,100.00
2023-05-12T03:28:27.045Z,100.00
2023-05-12T03:33:52.015Z,100.00
2023-05-12T03:39:20.044Z,100.00
2023-05-12T03:44:45.055Z,100.00
2023-05-12T03:50:03.058Z,100.00
2023-05-12T03:55:30.062Z,100.00
2023-05-12T04:00:57.042Z,100.00
2023-05-12T04:06:22.068Z,100.00
2023-05-12T04:11:50.067Z,100.00
2023-05-12T04:17:14.085Z,100.00
2023-05-12T04:22:39.083Z,100.00
2023-05-12T04:28:06.086Z,100.00
2023-05-12T04:33:32.095Z,100.00
2023-05-12T04:38:57.076Z,100.00
2023-05-12T04:44:25.063Z,100.00
2023-05-12T04:49:50.115Z,100.00
2023-05-12T04:55:16.100Z,100.00
2023-05-12T05:00:43.075Z,100.00
2023-05-12T05:06:08.104Z,100.00
2023-05-12T05:11:33.069Z,100.00
2023-05-12T05:17:01.109Z,100.00
2023-05-12T05:22:26.104Z,100.00
2023-05-12T05:27:51.137Z,100.00
2023-05-12T05:33:20.098Z,100.00
2023-05-12T05:38:45.106Z,100.00
2023-05-12T05:44:11.108Z,100.00
2023-05-12T05:49:39.105Z,100.00
2023-05-12T05:55:04.119Z,100.00
2023-05-12T06:00:29.167Z,100.00
2023-05-12T06:06:00.144Z,100.00
2023-05-12T06:11:26.115Z,100.00
2023-05-12T06:16:50.156Z,100.00
2023-05-12T06:22:18.119Z,100.00
2023-05-12T06:27:42.125Z,100.00
2023-05-12T06:33:07.179Z,100.00
2023-05-12T06:38:34.164Z,100.00
2023-05-12T06:43:59.141Z,100.00
2023-05-12T06:49:23.143Z,100.00
2023-05-12T06:54:51.129Z,100.00
2023-05-12T07:00:17.136Z,100.00
2023-05-12T07:05:42.220Z,100.00
2023-05-12T07:11:09.171Z,100.00
2023-05-12T07:16:34.307Z,100.00
2023-05-12T07:21:59.161Z,100.00
2023-05-12T07:27:27.171Z,100.00
2023-05-12T07:32:59.227Z,100.00
2023-05-12T07:38:24.206Z,100.00
2023-05-12T07:43:51.195Z,100.00
2023-05-12T07:49:17.165Z,100.00
2023-05-12T07:54:42.194Z,100.00
2023-05-12T08:00:11.164Z,100.00
2023-05-12T08:05:36.173Z,100.00
2023-05-12T08:11:01.233Z,100.00
2023-05-12T08:16:28.239Z,100.00
2023-05-12T08:21:54.215Z,100.00
2023-05-12T08:27:18.210Z,100.00
2023-05-12T08:32:52.274Z,100.00
2023-05-12T08:38:17.199Z,100.00
2023-05-12T08:43:46.240Z,100.00
2023-05-12T08:49:14.226Z,100.00
2023-05-12T08:54:52.299Z,100.00
2023-05-12T09:00:23.314Z,100.00
2023-05-12T09:05:52.230Z,100.00
2023-05-12T09:11:21.212Z,100.00
2023-05-12T09:16:48.251Z,100.00
2023-05-12T09:22:21.240Z,100.00
2023-05-12T09:27:46.259Z,100.00
2023-05-12T09:33:24.263Z,100.00
2023-05-12T09:38:52.250Z,100.00
2023-05-12T09:44:16.267Z,100.00
2023-05-12T09:49:41.274Z,100.00
2023-05-12T09:55:08.256Z,100.00
2023-05-12T10:00:48.909Z,100.00
2023-05-12T10:06:22.264Z,100.00
2023-05-12T10:11:52.053Z,100.00
2023-05-12T10:17:19.264Z,100.00
2023-05-12T10:22:44.242Z,100.00
2023-05-12T10:28:13.270Z,100.00
2023-05-12T10:33:39.359Z,100.00
2023-05-12T10:39:04.304Z,100.00
2023-05-12T10:44:39.383Z,100.00
2023-05-12T10:50:03.326Z,100.00
2023-05-12T10:55:28.400Z,100.00
2023-05-12T11:01:06.178Z,100.00
2023-05-12T11:06:36.522Z,100.00
2023-05-12T11:12:00.633Z,93.15
2023-05-12T11:17:28.429Z,83.20
2023-05-12T11:22:53.316Z,91.00
2023-05-12T11:28:21.290Z,86.85
2023-05-12T11:34:04.573Z,94.43
2023-05-12T11:39:39.328Z,99.14
2023-05-12T11:45:05.406Z,100.00
2023-05-12T11:50:34.377Z,100.00
2023-05-12T11:56:09.390Z,98.31
2023-05-12T12:01:35.348Z,90.74
2023-05-12T12:07:02.331Z,94.33
2023-05-12T12:12:27.367Z,79.95
2023-05-12T12:17:52.417Z,82.43
2023-05-12T12:23:20.384Z,76.60
2023-05-12T12:28:44.359Z,82.44
2023-05-12T12:34:09.362Z,73.07
2023-05-12T12:39:36.390Z,70.34
2023-05-12T12:45:01.384Z,72.93
2023-05-12T12:50:27.307Z,74.29
2023-05-12T12:56:01.386Z,73.82
2023-05-12T13:01:26.491Z,64.26
2023-05-12T13:06:50.392Z,70.47
2023-05-12T13:12:18.373Z,73.43
2023-05-12T13:17:42.427Z,88.07
2023-05-12T13:23:07.390Z,75.05
2023-05-12T13:28:34.410Z,75.57
2023-05-12T13:33:59.419Z,71.14
2023-05-12T13:39:23.393Z,77.26
2023-05-12T13:44:52.423Z,62.68
2023-05-12T13:50:16.429Z,70.11
2023-05-12T13:55:45.416Z,67.75
2023-05-12T14:01:12.499Z,73.67
2023-05-12T14:06:38.535Z,67.67
2023-05-12T14:12:04.452Z,72.51
2023-05-12T14:17:32.447Z,66.03
2023-05-12T14:22:57.403Z,72.52
2023-05-12T14:28:22.508Z,66.28
2023-05-12T14:33:58.545Z,67.71
2023-05-12T14:39:24.892Z,71.41
2023-05-12T14:44:50.549Z,75.93
2023-05-12T14:50:19.623Z,71.01
2023-05-12T14:55:44.520Z,65.00
2023-05-12T15:01:09.757Z,63.56
2023-05-12T15:06:36.457Z,68.09
2023-05-12T15:12:01.466Z,63.08
2023-05-12T15:17:25.485Z,67.70
2023-05-12T15:22:53.546Z,55.62
2023-05-12T15:28:17.475Z,59.94
2023-05-12T15:33:42.519Z,57.18
2023-05-12T15:39:09.483Z,59.83
2023-05-12T15:44:34.483Z,56.73
2023-05-12T15:50:02.572Z,60.08
2023-05-12T15:55:30.479Z,55.35
2023-05-12T16:00:54.506Z,59.37
2023-05-12T16:06:19.497Z,57.06
2023-05-12T16:11:46.545Z,59.61
2023-05-12T16:17:11.539Z,58.74
2023-05-12T16:22:35.498Z,56.88
2023-05-12T16:28:03.502Z,53.71
2023-05-12T16:33:28.521Z,56.44
2023-05-12T16:38:53.623Z,57.54
2023-05-12T16:44:20.547Z,61.36
2023-05-12T16:49:45.535Z,60.88
2023-05-12T16:55:11.533Z,69.66
2023-05-12T17:00:39.541Z,72.93
2023-05-12T17:06:04.542Z,73.53
2023-05-12T17:11:31.548Z,75.45
2023-05-12T17:16:59.544Z,71.90
2023-05-12T17:22:24.560Z,69.84
2023-05-12T17:27:48.568Z,70.09
2023-05-12T17:33:16.605Z,68.58
2023-05-12T17:38:40.579Z,73.70
2023-05-12T17:44:05.552Z,71.25
2023-05-12T17:49:32.574Z,73.58
2023-05-12T17:54:57.569Z,74.26
2023-05-12T18:00:23.564Z,80.09
2023-05-12T18:05:51.576Z,77.89
2023-05-12T18:11:15.582Z,84.95
2023-05-12T18:16:40.646Z,100.00
2023-05-12T18:22:09.612Z,100.00
2023-05-12T18:27:34.673Z,100.00
2023-05-12T18:32:58.608Z,100.00
2023-05-12T18:38:26.612Z,100.00
2023-05-12T18:43:51.618Z,100.00
2023-05-12T18:49:16.627Z,100.00
2023-05-12T18:54:45.487Z,100.00
2023-05-12T19:00:11.626Z,100.00
2023-05-12T19:05:37.387Z,100.00
2023-05-12T19:11:05.626Z,100.00
2023-05-12T19:16:32.922Z,100.00
2023-05-12T19:22:00.182Z,100.00
2023-05-12T19:27:26.638Z,100.00
2023-05-12T19:32:58.968Z,100.00
2023-05-12T19:38:25.663Z,100.00
2023-05-12T19:43:52.626Z,100.00
2023-05-12T19:49:17.667Z,100.00
2023-05-12T19:54:42.657Z,100.00
2023-05-12T20:00:13.058Z,100.00
2023-05-12T20:05:37.816Z,100.00
2023-05-12T20:11:02.825Z,100.00
2023-05-12T20:16:29.798Z,100.00
2023-05-12T20:21:54.677Z,100.00
2023-05-12T20:27:25.715Z,100.00
2023-05-12T20:32:59.728Z,100.00
2023-05-12T20:38:24.681Z,100.00
2023-05-12T20:43:49.735Z,100.00
2023-05-12T20:49:17.689Z,100.00
2023-05-12T20:54:41.704Z,100.00
2023-05-12T21:00:06.832Z,100.00
2023-05-12T21:05:33.720Z,100.00
2023-05-12T21:10:58.735Z,100.00
2023-05-12T21:16:22.827Z,100.00
2023-05-12T21:21:50.697Z,100.00
2023-05-12T21:27:18.697Z,100.00
2023-05-12T21:32:49.758Z,100.00
2023-05-12T21:38:17.713Z,100.00
2023-05-12T21:43:41.712Z,100.00
2023-05-12T21:49:06.736Z,100.00
2023-05-12T21:54:33.743Z,100.00
2023-05-12T21:59:58.705Z,100.00
2023-05-12T22:05:26.745Z,100.00
2023-05-12T22:10:54.743Z,100.00
2023-05-12T22:16:21.722Z,100.00
2023-05-12T22:21:50.775Z,100.00
2023-05-12T22:27:17.877Z,100.00
2023-05-12T22:32:48.826Z,100.00
2023-05-12T22:38:13.747Z,100.00
2023-05-12T22:43:40.775Z,100.00
2023-05-12T22:49:05.786Z,100.00
2023-05-12T22:54:31.094Z,100.00
2023-05-12T22:59:58.764Z,100.00
2023-05-12T23:05:23.780Z,100.00
2023-05-12T23:10:48.769Z,100.00
2023-05-12T23:16:15.823Z,100.00
2023-05-12T23:21:40.755Z,100.00
2023-05-12T23:27:04.780Z,100.00
2023-05-12T23:32:38.956Z,100.00
2023-05-12T23:38:03.783Z,100.00
2023-05-12T23:43:27.766Z,100.00
2023-05-12T23:48:55.806Z,100.00
2023-05-12T23:54:19.806Z,100.00
2023-05-12T23:59:45.817Z,100.00
